Time;durP1;ratioP1;P1;durP2;ratioP2;P2;SDS_P1;SDS_P2;PMS_P1;PMS_P2;Temp;Humidity;BMP_temperature;BMP_pressure;BME280_temperature;BME280_humidity;BME280_pressure;Samples;Min_cycle;Max_cycle;Signal;HPM_P1;HPM_P2
2022/01/16 00:04:08;;;;;;;24.37;18.70;;;;;;;;;;5076110;28;20441;-77
2022/01/16 00:06:35;;;;;;;23.23;18.33;;;;;;;;;;5076384;28;20944;-73
2022/01/16 00:09:04;;;;;;;23.43;19.43;;;;;;;;;;5075827;28;20483;-74
2022/01/16 00:11:30;;;;;;;25.47;18.87;;;;;;;;;;5076126;28;20476;-73
2022/01/16 00:13:56;;;;;;;22.97;18.67;;;;;;;;;;5075616;28;20449;-75
2022/01/16 00:16:24;;;;;;;23.47;18.93;;;;;;;;;;5075807;28;20805;-73
2022/01/16 00:18:52;;;;;;;23.60;18.90;;;;;;;;;;5075574;28;20533;-73
2022/01/16 00:21:18;;;;;;;22.57;18.13;;;;;;;;;;5075365;28;20449;-73
2022/01/16 00:23:45;;;;;;;25.77;20.13;;;;;;;;;;5075621;28;20437;-75
2022/01/16 00:26:11;;;;;;;23.87;18.27;;;;;;;;;;5075155;28;20442;-72
2022/01/16 00:28:37;;;;;;;26.73;19.03;;;;;;;;;;5075165;28;20434;-73
2022/01/16 00:31:03;;;;;;;24.43;20.23;;;;;;;;;;5073462;28;20460;-70
2022/01/16 00:33:30;;;;;;;24.70;19.43;;;;;;;;;;5074924;28;20944;-71
2022/01/16 00:35:56;;;;;;;27.13;20.03;;;;;;;;;;5075217;28;20461;-70
2022/01/16 00:38:22;;;;;;;26.23;20.63;;;;;;;;;;5075207;28;20446;-71
2022/01/16 00:40:48;;;;;;;25.03;19.83;;;;;;;;;;5075317;28;20674;-69
2022/01/16 00:43:14;;;;;;;25.60;19.83;;;;;;;;;;5075202;28;20203;-69
2022/01/16 00:45:41;;;;;;;25.60;19.07;;;;;;;;;;5075048;28;20215;-71
2022/01/16 00:48:07;;;;;;;29.23;21.20;;;;;;;;;;5074778;28;20455;-73
2022/01/16 00:50:35;;;;;;;27.13;20.37;;;;;;;;;;5075170;28;20500;-73
2022/01/16 00:53:01;;;;;;;27.67;20.60;;;;;;;;;;5075039;28;20491;-72
2022/01/16 00:55:27;;;;;;;25.03;20.00;;;;;;;;;;5074881;28;20437;-73
2022/01/16 00:57:53;;;;;;;22.63;17.73;;;;;;;;;;5074879;28;20438;-73
2022/01/16 01:00:19;;;;;;;23.50;18.10;;;;;;;;;;5062699;28;20438;-78
2022/01/16 01:02:45;;;;;;;22.50;18.13;;;;;;;;;;5054841;28;20666;-76
2022/01/16 01:05:11;;;;;;;23.00;17.30;;;;;;;;;;5052854;28;20435;-77
2022/01/16 01:07:39;;;;;;;21.40;17.30;;;;;;;;;;5054708;28;20455;-76
2022/01/16 01:10:06;;;;;;;35.63;19.00;;;;;;;;;;5054359;28;20487;-77
2022/01/16 01:13:22;;;;;;;25.97;19.20;;;;;;;;;;5054688;28;20459;-77
2022/01/16 01:15:25;;;;;;;25.77;18.93;;;;;;;;;;5051427;28;20453;-76
2022/01/16 01:17:51;;;;;;;25.87;19.83;;;;;;;;;;5054483;28;20469;-77
2022/01/16 01:20:19;;;;;;;27.13;19.90;;;;;;;;;;5054417;28;20443;-76
2022/01/16 01:22:47;;;;;;;29.70;20.87;;;;;;;;;;5054482;28;20732;-75
2022/01/16 01:25:14;;;;;;;48.17;23.10;;;;;;;;;;5054266;28;20445;-74
2022/01/16 01:27:41;;;;;;;52.37;21.23;;;;;;;;;;5054311;28;20465;-74
2022/01/16 01:30:09;;;;;;;32.53;22.63;;;;;;;;;;5054250;28;20511;-76
2022/01/16 01:32:36;;;;;;;31.97;22.53;;;;;;;;;;5054103;28;20466;-76
2022/01/16 01:35:03;;;;;;;30.60;21.03;;;;;;;;;;5054237;28;20465;-75
2022/01/16 01:37:29;;;;;;;27.33;19.63;;;;;;;;;;5053997;28;20447;-75
2022/01/16 01:39:56;;;;;;;23.93;17.83;;;;;;;;;;5054132;28;20521;-76
2022/01/16 01:42:24;;;;;;;22.70;17.13;;;;;;;;;;5053814;28;20220;-77
2022/01/16 01:53:05;;;;;;;20.13;16.00;;;;;;;;;;5053680;28;20422;-75
2022/01/16 01:55:33;;;;;;;23.60;16.97;;;;;;;;;;5053789;28;20510;-74
2022/01/16 01:57:59;;;;;;;20.67;16.10;;;;;;;;;;5053708;28;20497;-74
2022/01/16 02:00:25;;;;;;;19.83;15.73;;;;;;;;;;5053555;28;20881;-73
2022/01/16 02:05:37;;;;;;;18.60;15.00;;;;;;;;;;5053380;28;20422;-72
2022/01/16 02:08:05;;;;;;;27.00;16.53;;;;;;;;;;5053678;28;20439;-73
2022/01/16 02:10:32;;;;;;;21.10;16.20;;;;;;;;;;5053339;28;20502;-74
2022/01/16 02:13:03;;;;;;;21.97;16.10;;;;;;;;;;5051007;28;20483;-72
2022/01/16 02:31:41;;;;;;;20.30;15.23;;;;;;;;;;5053054;28;20435;-71
2022/01/16 02:36:56;;;;;;;17.87;14.70;;;;;;;;;;5052835;28;20793;-71
2022/01/16 02:39:26;;;;;;;18.27;13.70;;;;;;;;;;5052802;28;20423;-72
2022/01/16 02:41:53;;;;;;;15.17;13.27;;;;;;;;;;5052850;28;20905;-74
2022/01/16 02:44:32;;;;;;;17.20;14.00;;;;;;;;;;5052739;28;20431;-72
2022/01/16 02:46:59;;;;;;;15.20;12.70;;;;;;;;;;5052629;28;20455;-71
2022/01/16 02:49:27;;;;;;;14.87;12.23;;;;;;;;;;5052349;28;20474;-72
2022/01/16 02:51:54;;;;;;;16.17;12.97;;;;;;;;;;5052463;28;20431;-72
2022/01/16 02:54:21;;;;;;;18.63;12.33;;;;;;;;;;5052283;28;20458;-72
2022/01/16 02:56:48;;;;;;;16.77;13.43;;;;;;;;;;5052521;28;20431;-73
2022/01/16 02:59:15;;;;;;;14.67;12.37;;;;;;;;;;5052234;28;20454;-73
2022/01/16 03:01:42;;;;;;;13.87;12.00;;;;;;;;;;5052387;28;20465;-72
2022/01/16 03:04:08;;;;;;;13.90;11.60;;;;;;;;;;5052402;28;20447;-73
2022/01/16 03:06:34;;;;;;;13.33;11.17;;;;;;;;;;5052253;28;20446;-72
2022/01/16 03:09:00;;;;;;;12.90;11.00;;;;;;;;;;5052240;28;20548;-73
2022/01/16 03:11:37;;;;;;;13.37;11.27;;;;;;;;;;5051905;28;20471;-73
2022/01/16 03:14:05;;;;;;;14.10;12.30;;;;;;;;;;5052189;28;20431;-74
2022/01/16 03:16:31;;;;;;;15.27;11.30;;;;;;;;;;5052166;28;20921;-70
2022/01/16 03:21:54;;;;;;;14.93;11.90;;;;;;;;;;5052050;28;20449;-72
2022/01/16 03:24:21;;;;;;;15.10;12.13;;;;;;;;;;5051301;28;20426;-72
2022/01/16 03:26:47;;;;;;;15.57;12.77;;;;;;;;;;5052008;28;20518;-71
2022/01/16 03:29:14;;;;;;;16.50;13.50;;;;;;;;;;5051924;28;20517;-70
2022/01/16 03:31:40;;;;;;;16.13;12.73;;;;;;;;;;5051856;28;20443;-72
2022/01/16 03:34:06;;;;;;;18.73;15.00;;;;;;;;;;5051964;28;20526;-70
2022/01/16 03:36:32;;;;;;;18.10;14.40;;;;;;;;;;5051963;28;20427;-72
2022/01/16 03:38:58;;;;;;;17.87;14.17;;;;;;;;;;5051974;28;20427;-70
2022/01/16 03:41:28;;;;;;;20.10;15.30;;;;;;;;;;5051808;28;20426;-71
2022/01/16 03:43:55;;;;;;;22.20;15.77;;;;;;;;;;5051887;28;20571;-72
2022/01/16 03:46:23;;;;;;;21.37;16.33;;;;;;;;;;5051594;28;21008;-71
2022/01/16 03:48:49;;;;;;;23.87;16.63;;;;;;;;;;5051769;28;20522;-71
2022/01/16 03:51:15;;;;;;;20.07;16.17;;;;;;;;;;5051705;28;20513;-74
2022/01/16 03:53:42;;;;;;;20.23;16.33;;;;;;;;;;5051690;28;20518;-71
2022/01/16 03:56:08;;;;;;;20.43;15.37;;;;;;;;;;5051695;28;20200;-73
2022/01/16 03:58:34;;;;;;;19.47;14.97;;;;;;;;;;5051767;28;20438;-72
2022/01/16 04:01:00;;;;;;;19.57;14.47;;;;;;;;;;5051792;28;20207;-73
2022/01/16 04:03:28;;;;;;;17.00;14.13;;;;;;;;;;5051495;28;20446;-72
2022/01/16 04:05:54;;;;;;;17.63;13.97;;;;;;;;;;5051692;28;20201;-74
2022/01/16 04:08:20;;;;;;;16.30;13.23;;;;;;;;;;5051585;28;20434;-74
2022/01/16 04:10:46;;;;;;;16.80;12.83;;;;;;;;;;5051556;28;20478;-72
2022/01/16 04:13:12;;;;;;;15.20;13.20;;;;;;;;;;5051500;28;20242;-74
2022/01/16 04:15:38;;;;;;;16.93;13.53;;;;;;;;;;5051580;28;20230;-74
2022/01/16 04:18:05;;;;;;;20.30;15.10;;;;;;;;;;5051346;28;20435;-73
2022/01/16 04:20:33;;;;;;;20.00;15.60;;;;;;;;;;5051524;28;20478;-73
2022/01/16 04:22:59;;;;;;;19.20;15.40;;;;;;;;;;5051492;28;20906;-73
2022/01/16 04:25:25;;;;;;;16.97;14.10;;;;;;;;;;5051482;28;20445;-74
2022/01/16 04:27:51;;;;;;;17.57;14.03;;;;;;;;;;5051161;28;20446;-73
2022/01/16 04:30:17;;;;;;;18.00;14.63;;;;;;;;;;5051604;28;20315;-74
2022/01/16 04:32:43;;;;;;;18.00;14.37;;;;;;;;;;5051264;28;20196;-76
2022/01/16 04:35:09;;;;;;;17.73;13.80;;;;;;;;;;5052672;28;20446;-75
2022/01/16 04:37:37;;;;;;;17.40;13.60;;;;;;;;;;5054851;28;20224;-76
2022/01/16 04:40:04;;;;;;;16.90;13.47;;;;;;;;;;5055307;28;20438;-75
2022/01/16 04:45:15;;;;;;;20.70;15.13;;;;;;;;;;5055078;28;20510;-73
2022/01/16 04:47:41;;;;;;;17.63;14.27;;;;;;;;;;5054781;28;20446;-72
2022/01/16 04:50:11;;;;;;;19.67;15.07;;;;;;;;;;5054711;28;21007;-75
2022/01/16 04:52:39;;;;;;;18.30;15.00;;;;;;;;;;5054718;28;20423;-74
2022/01/16 04:55:06;;;;;;;18.23;14.60;;;;;;;;;;5054752;28;20467;-74
2022/01/16 04:57:32;;;;;;;19.80;16.40;;;;;;;;;;5054668;28;20430;-74
2022/01/16 04:59:58;;;;;;;20.87;17.23;;;;;;;;;;5054590;28;20970;-72
2022/01/16 05:02:24;;;;;;;20.00;15.97;;;;;;;;;;5054443;28;20431;-73
2022/01/16 05:04:50;;;;;;;21.37;16.73;;;;;;;;;;5054455;28;20208;-73
2022/01/16 05:07:16;;;;;;;20.23;16.53;;;;;;;;;;5054523;28;20200;-74
2022/01/16 05:09:43;;;;;;;19.33;16.10;;;;;;;;;;5054275;28;20314;-73
2022/01/16 05:12:22;;;;;;;23.20;16.90;;;;;;;;;;5054323;28;20486;-73
2022/01/16 05:17:33;;;;;;;19.40;15.43;;;;;;;;;;5054328;28;20422;-73
2022/01/16 05:19:59;;;;;;;19.33;15.60;;;;;;;;;;5054359;28;20502;-74
2022/01/16 05:22:25;;;;;;;21.47;15.40;;;;;;;;;;5054174;28;20207;-72
2022/01/16 05:24:52;;;;;;;18.93;15.13;;;;;;;;;;5054235;28;20224;-72
2022/01/16 05:27:18;;;;;;;20.57;16.13;;;;;;;;;;5054241;28;20469;-72
2022/01/16 05:29:44;;;;;;;19.20;15.33;;;;;;;;;;5053849;28;20466;-74
2022/01/16 05:32:10;;;;;;;20.90;16.03;;;;;;;;;;5054052;28;20246;-74
2022/01/16 05:34:36;;;;;;;19.97;14.47;;;;;;;;;;5053890;28;20640;-74
2022/01/16 05:37:02;;;;;;;20.10;14.80;;;;;;;;;;5054264;28;20239;-74
2022/01/16 05:39:28;;;;;;;21.43;15.30;;;;;;;;;;5053857;28;20228;-75
2022/01/16 05:41:56;;;;;;;19.83;14.47;;;;;;;;;;5053850;28;20427;-73
2022/01/16 05:44:22;;;;;;;23.63;15.23;;;;;;;;;;5053844;28;20449;-72
2022/01/16 05:46:48;;;;;;;20.27;14.50;;;;;;;;;;5052982;28;20443;-73
2022/01/16 05:49:14;;;;;;;21.77;14.60;;;;;;;;;;5053700;28;20255;-74
2022/01/16 05:51:40;;;;;;;18.37;13.50;;;;;;;;;;5053620;28;20207;-73
2022/01/16 05:54:06;;;;;;;18.43;13.27;;;;;;;;;;5053651;28;20464;-72
2022/01/16 05:56:32;;;;;;;18.73;14.67;;;;;;;;;;5053594;28;20430;-70
2022/01/16 05:58:59;;;;;;;21.40;13.50;;;;;;;;;;5053660;28;20442;-73
2022/01/16 06:01:25;;;;;;;22.30;13.77;;;;;;;;;;5053456;28;20446;-72
2022/01/16 06:03:51;;;;;;;22.67;13.50;;;;;;;;;;5053498;28;20467;-72
2022/01/16 06:06:17;;;;;;;19.60;13.50;;;;;;;;;;5053604;28;20458;-71
2022/01/16 06:08:43;;;;;;;23.70;14.27;;;;;;;;;;5053328;28;20192;-72
2022/01/16 06:11:09;;;;;;;21.50;14.90;;;;;;;;;;5053125;28;20478;-74
2022/01/16 06:13:35;;;;;;;24.00;14.77;;;;;;;;;;5053241;28;20447;-73
2022/01/16 06:16:03;;;;;;;23.17;15.27;;;;;;;;;;5053348;28;20196;-75
2022/01/16 06:18:29;;;;;;;23.87;15.27;;;;;;;;;;5053072;28;20262;-74
2022/01/16 06:20:55;;;;;;;24.50;16.07;;;;;;;;;;5053058;28;20842;-74
2022/01/16 06:23:21;;;;;;;24.03;15.93;;;;;;;;;;5053006;28;20245;-73
2022/01/16 06:25:54;;;;;;;27.10;17.80;;;;;;;;;;5053371;28;20447;-74
2022/01/16 06:28:20;;;;;;;23.93;16.00;;;;;;;;;;5053035;28;20236;-73
2022/01/16 06:30:46;;;;;;;26.97;17.50;;;;;;;;;;5052940;28;20474;-73
2022/01/16 06:33:13;;;;;;;28.80;18.50;;;;;;;;;;5052824;28;20572;-73
2022/01/16 06:35:39;;;;;;;26.63;17.77;;;;;;;;;;5052783;28;20231;-73
2022/01/16 06:38:05;;;;;;;29.50;18.43;;;;;;;;;;5052770;28;20438;-74
2022/01/16 06:40:31;;;;;;;33.10;19.27;;;;;;;;;;5053055;28;20563;-74
2022/01/16 06:42:57;;;;;;;31.87;20.13;;;;;;;;;;5052673;28;20433;-73
2022/01/16 06:45:24;;;;;;;34.67;20.80;;;;;;;;;;5052545;28;20447;-72
2022/01/16 06:47:51;;;;;;;36.97;21.20;;;;;;;;;;5052445;28;20291;-73
2022/01/16 06:50:18;;;;;;;34.37;21.80;;;;;;;;;;5052350;28;20482;-73
2022/01/16 06:52:44;;;;;;;34.33;21.37;;;;;;;;;;5052318;28;20905;-76
2022/01/16 06:55:11;;;;;;;32.67;19.40;;;;;;;;;;5052579;28;20542;-75
2022/01/16 06:57:37;;;;;;;30.17;18.73;;;;;;;;;;5052283;28;20196;-74
2022/01/16 07:00:03;;;;;;;31.30;18.67;;;;;;;;;;5052713;28;20450;-73
2022/01/16 07:02:29;;;;;;;34.67;18.97;;;;;;;;;;5054454;28;20470;-72
2022/01/16 07:04:55;;;;;;;30.43;18.33;;;;;;;;;;5052153;28;20447;-74
2022/01/16 07:07:23;;;;;;;32.33;18.60;;;;;;;;;;5057310;28;20720;-72
2022/01/16 07:09:49;;;;;;;32.10;19.47;;;;;;;;;;5052015;28;20540;-74
2022/01/16 07:12:15;;;;;;;30.50;18.23;;;;;;;;;;5052243;28;20494;-73
2022/01/16 07:14:41;;;;;;;34.83;19.70;;;;;;;;;;5052150;28;20200;-74
2022/01/16 07:17:07;;;;;;;37.17;20.70;;;;;;;;;;5052107;28;20438;-75
2022/01/16 07:19:33;;;;;;;36.80;21.33;;;;;;;;;;5052141;28;20522;-74
2022/01/16 07:21:59;;;;;;;40.83;22.20;;;;;;;;;;5052090;28;20526;-75
2022/01/16 07:24:26;;;;;;;38.93;22.00;;;;;;;;;;5051957;28;20525;-75
2022/01/16 07:26:54;;;;;;;43.93;26.03;;;;;;;;;;5051760;28;20262;-74
2022/01/16 07:29:20;;;;;;;48.70;26.73;;;;;;;;;;5051874;28;20467;-73
2022/01/16 07:31:46;;;;;;;45.50;25.87;;;;;;;;;;5051788;28;20941;-74
2022/01/16 07:34:12;;;;;;;44.30;26.37;;;;;;;;;;5051677;28;20435;-75
2022/01/16 07:36:38;;;;;;;52.20;27.83;;;;;;;;;;5051691;28;20485;-73
2022/01/16 07:39:04;;;;;;;50.70;28.90;;;;;;;;;;5052061;28;20238;-74
2022/01/16 07:41:32;;;;;;;45.33;26.67;;;;;;;;;;5051809;28;20462;-74
2022/01/16 07:43:58;;;;;;;51.97;28.17;;;;;;;;;;5051741;28;20637;-76
2022/01/16 07:46:24;;;;;;;53.67;28.47;;;;;;;;;;5051782;28;20466;-75
2022/01/16 07:48:50;;;;;;;54.30;28.57;;;;;;;;;;5051649;28;20196;-75
2022/01/16 07:51:16;;;;;;;57.97;29.90;;;;;;;;;;5051720;28;20509;-76
2022/01/16 07:53:42;;;;;;;53.17;28.67;;;;;;;;;;5051571;28;20458;-76
2022/01/16 07:56:08;;;;;;;55.17;30.00;;;;;;;;;;5051523;28;20530;-76
2022/01/16 07:58:36;;;;;;;53.20;28.53;;;;;;;;;;5051727;28;20481;-75
2022/01/16 08:01:02;;;;;;;51.33;29.43;;;;;;;;;;5051955;28;20218;-73
2022/01/16 08:03:28;;;;;;;52.00;28.87;;;;;;;;;;5051517;28;20433;-74
2022/01/16 08:05:54;;;;;;;59.77;30.13;;;;;;;;;;5052182;28;20446;-73
2022/01/16 08:08:20;;;;;;;56.70;29.77;;;;;;;;;;5051666;28;20446;-75
2022/01/16 08:10:46;;;;;;;55.70;30.73;;;;;;;;;;5054069;28;20262;-65
2022/01/16 08:13:12;;;;;;;55.80;31.00;;;;;;;;;;5055058;28;20478;-68
2022/01/16 08:15:40;;;;;;;62.77;32.40;;;;;;;;;;5055253;28;20447;-67
2022/01/16 08:18:06;;;;;;;58.37;30.97;;;;;;;;;;5055159;28;20956;-72
2022/01/16 08:20:32;;;;;;;64.70;31.77;;;;;;;;;;5055427;28;20533;-75
2022/01/16 08:22:58;;;;;;;63.53;32.50;;;;;;;;;;5060253;28;20430;-71
2022/01/16 08:25:25;;;;;;;54.97;29.87;;;;;;;;;;5055232;28;20470;-76
2022/01/16 08:27:51;;;;;;;64.40;32.27;;;;;;;;;;5055505;28;20492;-75
2022/01/16 08:30:17;;;;;;;61.50;31.00;;;;;;;;;;5055578;28;20474;-75
2022/01/16 08:32:44;;;;;;;64.10;30.57;;;;;;;;;;5055315;28;20439;-75
2022/01/16 08:35:11;;;;;;;60.07;30.60;;;;;;;;;;5055326;28;20443;-76
2022/01/16 08:37:37;;;;;;;62.37;32.10;;;;;;;;;;5055427;28;20442;-77
2022/01/16 08:40:04;;;;;;;58.37;30.53;;;;;;;;;;5053581;28;20435;-75
2022/01/16 08:42:30;;;;;;;63.97;31.97;;;;;;;;;;5055230;28;20488;-76
2022/01/16 08:44:56;;;;;;;63.33;31.73;;;;;;;;;;5054848;28;20525;-77
2022/01/16 08:47:22;;;;;;;57.13;31.93;;;;;;;;;;5054770;28;20458;-76
2022/01/16 08:49:50;;;;;;;59.90;32.40;;;;;;;;;;5054655;28;20972;-76
2022/01/16 08:52:18;;;;;;;57.17;32.20;;;;;;;;;;5055126;28;20545;-75
2022/01/16 08:54:45;;;;;;;62.83;33.77;;;;;;;;;;5054720;28;20529;-79
2022/01/16 08:57:11;;;;;;;54.17;31.77;;;;;;;;;;5054931;28;20848;-75
2022/01/16 08:59:37;;;;;;;59.07;33.00;;;;;;;;;;5054560;28;20477;-76
2022/01/16 09:02:03;;;;;;;57.17;32.10;;;;;;;;;;5054775;28;20861;-76
2022/01/16 09:04:29;;;;;;;58.50;32.37;;;;;;;;;;5054441;28;20427;-76
2022/01/16 09:06:57;;;;;;;57.13;34.07;;;;;;;;;;5054225;28;21003;-75
2022/01/16 09:09:23;;;;;;;53.37;32.43;;;;;;;;;;5054319;28;20208;-76
2022/01/16 09:11:49;;;;;;;60.13;33.47;;;;;;;;;;5054432;28;20561;-75
2022/01/16 09:14:15;;;;;;;56.57;31.73;;;;;;;;;;5054479;28;20196;-76
2022/01/16 09:16:41;;;;;;;55.60;31.47;;;;;;;;;;5054546;28;20442;-75
2022/01/16 09:19:07;;;;;;;57.10;33.53;;;;;;;;;;5054689;28;20200;-77
2022/01/16 09:21:34;;;;;;;59.67;33.33;;;;;;;;;;5052978;28;20476;-76
2022/01/16 09:24:01;;;;;;;62.27;34.43;;;;;;;;;;5053912;28;20497;-76
2022/01/16 09:26:27;;;;;;;60.20;33.47;;;;;;;;;;5054202;28;20439;-80
2022/01/16 09:28:53;;;;;;;57.40;33.07;;;;;;;;;;5053902;28;20510;-78
2022/01/16 09:31:20;;;;;;;54.90;31.83;;;;;;;;;;5053831;28;20482;-77
2022/01/16 09:33:46;;;;;;;55.50;31.97;;;;;;;;;;5053924;28;20435;-77
2022/01/16 09:36:12;;;;;;;58.10;32.47;;;;;;;;;;5053912;28;20462;-79
2022/01/16 09:38:39;;;;;;;59.93;34.27;;;;;;;;;;5053836;28;20442;-73
2022/01/16 09:41:07;;;;;;;60.03;33.63;;;;;;;;;;5053744;28;20436;-76
2022/01/16 09:43:34;;;;;;;62.73;34.40;;;;;;;;;;5053869;28;20450;-76
2022/01/16 09:46:00;;;;;;;62.53;34.53;;;;;;;;;;5053584;28;20504;-75
2022/01/16 09:48:26;;;;;;;58.53;34.23;;;;;;;;;;5052466;28;20427;-76
2022/01/16 09:50:52;;;;;;;60.00;35.10;;;;;;;;;;5053587;28;20478;-77
2022/01/16 09:53:18;;;;;;;68.77;35.37;;;;;;;;;;5053661;28;20457;-77
2022/01/16 09:55:44;;;;;;;58.90;33.33;;;;;;;;;;5053298;28;20836;-76
2022/01/16 09:58:11;;;;;;;62.60;33.47;;;;;;;;;;5053273;28;20505;-78
2022/01/16 10:00:37;;;;;;;66.10;35.10;;;;;;;;;;5053781;28;20660;-76
2022/01/16 10:03:05;;;;;;;62.10;34.33;;;;;;;;;;5053737;28;20517;-76
2022/01/16 10:05:32;;;;;;;58.73;33.60;;;;;;;;;;5053968;28;20492;-78
2022/01/16 10:07:58;;;;;;;61.57;33.97;;;;;;;;;;5053464;28;20442;-76
2022/01/16 10:10:25;;;;;;;59.67;31.97;;;;;;;;;;5053471;28;20490;-77
2022/01/16 10:12:54;;;;;;;58.60;33.77;;;;;;;;;;5052817;28;20474;-75
2022/01/16 10:15:24;;;;;;;58.43;32.87;;;;;;;;;;5053120;28;20949;-76
2022/01/16 10:17:52;;;;;;;59.20;34.10;;;;;;;;;;5053266;28;20462;-77
2022/01/16 10:20:19;;;;;;;59.27;32.40;;;;;;;;;;5053355;28;20518;-76
2022/01/16 10:22:46;;;;;;;60.87;33.17;;;;;;;;;;5052749;28;20442;-74
2022/01/16 10:25:12;;;;;;;66.30;34.30;;;;;;;;;;5052760;28;20443;-74
2022/01/16 10:27:40;;;;;;;62.77;33.67;;;;;;;;;;5052470;28;20496;-75
2022/01/16 10:30:07;;;;;;;58.27;31.93;;;;;;;;;;5052822;28;20881;-62
2022/01/16 10:32:36;;;;;;;55.47;32.30;;;;;;;;;;5060351;28;20438;-67
2022/01/16 10:35:09;;;;;;;58.10;30.60;;;;;;;;;;5072656;28;20825;-68
2022/01/16 10:37:36;;;;;;;61.70;32.77;;;;;;;;;;5072571;28;20434;-69
2022/01/16 10:40:05;;;;;;;59.93;31.17;;;;;;;;;;5072792;28;20434;-68
2022/01/16 10:42:32;;;;;;;57.20;32.17;;;;;;;;;;5072655;28;20438;-69
2022/01/16 10:45:00;;;;;;;55.27;29.37;;;;;;;;;;5070780;28;20788;-68
2022/01/16 10:47:28;;;;;;;51.37;28.97;;;;;;;;;;5072605;28;20809;-67
2022/01/16 10:50:15;;;;;;;49.00;28.50;;;;;;;;;;5072531;28;20489;-67
2022/01/16 10:52:59;;;;;;;53.40;28.70;;;;;;;;;;5067542;28;20445;-68
2022/01/16 10:55:36;;;;;;;58.43;29.37;;;;;;;;;;5072671;28;20517;-69
2022/01/16 10:58:04;;;;;;;53.27;29.97;;;;;;;;;;5072422;28;20974;-68
2022/01/16 11:00:30;;;;;;;58.70;31.63;;;;;;;;;;5072355;28;20426;-68
2022/01/16 11:03:00;;;;;;;58.60;28.93;;;;;;;;;;5072347;28;20497;-68
2022/01/16 11:05:27;;;;;;;55.43;31.00;;;;;;;;;;5072264;28;20425;-67
2022/01/16 11:07:56;;;;;;;57.23;31.97;;;;;;;;;;5072284;28;20430;-69
2022/01/16 11:10:26;;;;;;;57.50;31.17;;;;;;;;;;5061732;28;20471;-70
2022/01/16 11:12:52;;;;;;;56.43;30.87;;;;;;;;;;5052021;28;20532;-67
2022/01/16 11:15:19;;;;;;;57.67;30.53;;;;;;;;;;5052229;28;20446;-70
2022/01/16 11:17:45;;;;;;;63.20;31.67;;;;;;;;;;5052348;28;20522;-70
2022/01/16 11:20:12;;;;;;;54.57;29.80;;;;;;;;;;5052001;28;20501;-70
2022/01/16 11:22:59;;;;;;;53.07;30.00;;;;;;;;;;5052037;28;20490;-69
2022/01/16 11:25:38;;;;;;;55.83;28.83;;;;;;;;;;5052125;28;20430;-71
2022/01/16 11:28:05;;;;;;;56.47;29.93;;;;;;;;;;5052110;28;20442;-69
2022/01/16 11:30:32;;;;;;;54.10;28.73;;;;;;;;;;5051934;28;20477;-69
2022/01/16 11:32:59;;;;;;;50.00;28.13;;;;;;;;;;5052103;28;20453;-69
2022/01/16 11:35:25;;;;;;;49.47;28.67;;;;;;;;;;5051979;28;20549;-69
2022/01/16 11:37:52;;;;;;;54.77;29.87;;;;;;;;;;5051957;28;20453;-69
2022/01/16 11:40:19;;;;;;;53.37;29.30;;;;;;;;;;5052129;28;20446;-68
2022/01/16 11:43:06;;;;;;;54.80;29.90;;;;;;;;;;5051819;28;20427;-70
2022/01/16 11:45:32;;;;;;;55.60;30.03;;;;;;;;;;5050894;28;20500;-71
2022/01/16 11:47:58;;;;;;;54.93;29.87;;;;;;;;;;5051736;28;20442;-70
2022/01/16 11:50:33;;;;;;;52.37;29.00;;;;;;;;;;5059250;28;20583;-70
2022/01/16 11:52:59;;;;;;;55.37;28.47;;;;;;;;;;5051313;28;20529;-68
2022/01/16 11:55:33;;;;;;;49.93;29.03;;;;;;;;;;5051609;28;20558;-69
2022/01/16 11:58:01;;;;;;;54.17;29.37;;;;;;;;;;5051746;28;20249;-69
2022/01/16 12:00:42;;;;;;;55.03;29.17;;;;;;;;;;5051483;28;20473;-69
2022/01/16 12:03:28;;;;;;;58.13;30.57;;;;;;;;;;5051442;28;20843;-70
2022/01/16 12:06:14;;;;;;;61.80;30.40;;;;;;;;;;5051332;28;20488;-70
2022/01/16 12:08:45;;;;;;;48.73;28.97;;;;;;;;;;5050800;28;20521;-69
2022/01/16 12:11:33;;;;;;;46.27;28.23;;;;;;;;;;5051180;28;20566;-69
2022/01/16 12:14:01;;;;;;;55.10;30.77;;;;;;;;;;5051155;28;20543;-69
2022/01/16 12:16:35;;;;;;;57.70;31.60;;;;;;;;;;5051666;28;20449;-69
2022/01/16 12:19:20;;;;;;;51.17;30.20;;;;;;;;;;5051844;28;20427;-69
2022/01/16 12:21:52;;;;;;;55.70;30.93;;;;;;;;;;5051827;28;20515;-70
2022/01/16 12:24:32;;;;;;;53.23;29.93;;;;;;;;;;5051619;28;20450;-70
2022/01/16 12:27:13;;;;;;;58.70;32.53;;;;;;;;;;5051644;28;20438;-69
2022/01/16 12:29:54;;;;;;;52.50;31.80;;;;;;;;;;5051248;28;20608;-70
2022/01/16 12:32:38;;;;;;;56.60;31.27;;;;;;;;;;5051056;28;20447;-66
2022/01/16 12:35:05;;;;;;;54.17;30.80;;;;;;;;;;5051232;28;20534;-67
2022/01/16 12:37:41;;;;;;;59.23;32.60;;;;;;;;;;5051357;28;20487;-77
2022/01/16 12:40:07;;;;;;;47.87;31.10;;;;;;;;;;5051428;28;20443;-75
2022/01/16 12:42:33;;;;;;;53.03;30.83;;;;;;;;;;5051458;28;20434;-75
2022/01/16 12:44:59;;;;;;;51.90;30.80;;;;;;;;;;5051041;28;20928;-75
2022/01/16 12:47:26;;;;;;;49.03;30.23;;;;;;;;;;5051212;28;20469;-75
2022/01/16 12:49:53;;;;;;;55.20;30.63;;;;;;;;;;5051112;28;20649;-75
2022/01/16 12:52:20;;;;;;;52.00;30.30;;;;;;;;;;5051281;28;20435;-74
2022/01/16 12:54:50;;;;;;;47.67;29.77;;;;;;;;;;5050956;28;20476;-78
2022/01/16 12:57:25;;;;;;;43.93;29.07;;;;;;;;;;5053968;28;20834;-75
2022/01/16 12:59:52;;;;;;;44.30;29.50;;;;;;;;;;5054435;28;20776;-75
2022/01/16 13:02:18;;;;;;;48.50;29.83;;;;;;;;;;5054858;28;20429;-78
2022/01/16 13:04:45;;;;;;;47.90;29.97;;;;;;;;;;5055088;28;20438;-76
2022/01/16 13:07:12;;;;;;;45.83;29.27;;;;;;;;;;5055141;28;20204;-77
2022/01/16 13:09:39;;;;;;;44.80;30.70;;;;;;;;;;5054723;28;20449;-77
2022/01/16 13:12:07;;;;;;;45.67;29.73;;;;;;;;;;5054369;28;20474;-79
2022/01/16 13:14:34;;;;;;;44.10;29.33;;;;;;;;;;5054806;28;20437;-78
2022/01/16 13:17:01;;;;;;;46.37;28.50;;;;;;;;;;5054391;28;20426;-77
2022/01/16 13:19:28;;;;;;;48.20;29.83;;;;;;;;;;5054512;28;20439;-75
2022/01/16 13:22:01;;;;;;;42.47;27.63;;;;;;;;;;5054354;28;20459;-76
2022/01/16 13:24:38;;;;;;;41.13;26.93;;;;;;;;;;5054711;28;20435;-77
2022/01/16 13:27:08;;;;;;;39.87;27.73;;;;;;;;;;5054282;28;20492;-75
2022/01/16 13:29:36;;;;;;;46.00;27.53;;;;;;;;;;5054263;28;20439;-80
2022/01/16 13:32:02;;;;;;;42.00;25.80;;;;;;;;;;5054184;28;20439;-79
2022/01/16 13:34:36;;;;;;;38.40;25.00;;;;;;;;;;5054391;28;20520;-80
2022/01/16 13:37:03;;;;;;;35.77;25.17;;;;;;;;;;5054616;28;20936;-77
2022/01/16 13:39:50;;;;;;;36.43;24.10;;;;;;;;;;5053920;28;20798;-78
2022/01/16 13:42:25;;;;;;;36.17;24.17;;;;;;;;;;5048934;28;20526;-80
2022/01/16 13:44:52;;;;;;;38.90;25.00;;;;;;;;;;5054017;28;20434;-78
2022/01/16 13:47:18;;;;;;;34.87;24.77;;;;;;;;;;5053868;28;20478;-73
2022/01/16 13:49:45;;;;;;;38.40;25.43;;;;;;;;;;5053708;28;20430;-67
2022/01/16 13:52:12;;;;;;;37.00;25.57;;;;;;;;;;5053531;28;20443;-69
2022/01/16 13:54:38;;;;;;;36.37;23.57;;;;;;;;;;5053631;28;20832;-70
2022/01/16 13:57:04;;;;;;;35.93;25.60;;;;;;;;;;5053511;28;20967;-70
2022/01/16 13:59:31;;;;;;;31.80;23.97;;;;;;;;;;5053606;28;20701;-70
2022/01/16 14:01:58;;;;;;;37.23;25.33;;;;;;;;;;5053332;28;20431;-73
2022/01/16 14:04:25;;;;;;;37.30;24.73;;;;;;;;;;5053330;28;20505;-70
2022/01/16 14:06:51;;;;;;;38.70;23.40;;;;;;;;;;5053346;28;20508;-72
2022/01/16 14:09:18;;;;;;;36.10;24.27;;;;;;;;;;5052666;28;20443;-71
2022/01/16 14:11:45;;;;;;;35.43;26.57;;;;;;;;;;5053134;28;20487;-72
2022/01/16 14:14:12;;;;;;;39.47;25.53;;;;;;;;;;5053151;28;20430;-74
2022/01/16 14:16:47;;;;;;;37.80;24.77;;;;;;;;;;5053376;28;20538;-73
2022/01/16 14:19:16;;;;;;;35.93;24.60;;;;;;;;;;5053177;28;20439;-74
2022/01/16 14:21:59;;;;;;;33.83;24.40;;;;;;;;;;5053132;28;20465;-74
2022/01/16 14:24:26;;;;;;;34.10;23.87;;;;;;;;;;5052967;28;20207;-74
2022/01/16 14:26:53;;;;;;;32.53;23.23;;;;;;;;;;5053062;28;20446;-74
2022/01/16 14:29:20;;;;;;;34.33;24.03;;;;;;;;;;5052978;28;20975;-72
2022/01/16 14:31:48;;;;;;;34.43;24.67;;;;;;;;;;5052911;28;20520;-70
2022/01/16 14:34:16;;;;;;;31.40;22.27;;;;;;;;;;5052843;28;20442;-73
2022/01/16 14:36:42;;;;;;;33.13;22.03;;;;;;;;;;5052775;28;20435;-72
2022/01/16 14:39:09;;;;;;;30.53;22.53;;;;;;;;;;5052513;28;20441;-72
2022/01/16 14:41:36;;;;;;;33.93;22.70;;;;;;;;;;5052781;28;20275;-70
2022/01/16 14:44:02;;;;;;;27.33;20.17;;;;;;;;;;5052699;28;20442;-73
2022/01/16 14:46:29;;;;;;;32.07;22.67;;;;;;;;;;5052340;28;20435;-71
2022/01/16 14:48:56;;;;;;;35.60;22.07;;;;;;;;;;5052416;28;20455;-69
2022/01/16 14:51:23;;;;;;;29.70;21.27;;;;;;;;;;5052391;28;20486;-62
2022/01/16 14:53:49;;;;;;;33.37;20.97;;;;;;;;;;5052589;28;20494;-66
2022/01/16 14:56:15;;;;;;;26.63;19.90;;;;;;;;;;5052600;28;20460;-66
2022/01/16 14:58:42;;;;;;;29.63;21.00;;;;;;;;;;5052499;28;20489;-68
2022/01/16 15:01:08;;;;;;;28.27;19.93;;;;;;;;;;5052502;28;20449;-73